sensor_id;sensor_type;location;lat;lon;timestamp;temperature;humidity
5459;DHT22;2752;49.992;8.422;2023-02-22T00:00:14;5.20;84.90
5459;DHT22;2752;49.992;8.422;2023-02-22T00:02:47;5.20;85.30
5459;DHT22;2752;49.992;8.422;2023-02-22T00:05:14;5.20;84.60
5459;DHT22;2752;49.992;8.422;2023-02-22T00:07:45;5.20;83.70
5459;DHT22;2752;49.992;8.422;2023-02-22T00:10:13;5.10;84.00
5459;DHT22;2752;49.992;8.422;2023-02-22T00:12:40;5.10;84.10
5459;DHT22;2752;49.992;8.422;2023-02-22T00:15:09;5.10;85.00
5459;DHT22;2752;49.992;8.422;2023-02-22T00:17:38;5.10;85.60
5459;DHT22;2752;49.992;8.422;2023-02-22T00:20:06;5.10;85.70
5459;DHT22;2752;49.992;8.422;2023-02-22T00:22:33;5.00;87.20
5459;DHT22;2752;49.992;8.422;2023-02-22T00:24:59;5.00;88.60
5459;DHT22;2752;49.992;8.422;2023-02-22T00:27:26;5.00;89.10
5459;DHT22;2752;49.992;8.422;2023-02-22T00:29:53;5.00;89.40
5459;DHT22;2752;49.992;8.422;2023-02-22T00:32:22;5.10;90.40
5459;DHT22;2752;49.992;8.422;2023-02-22T00:34:51;5.20;89.50
5459;DHT22;2752;49.992;8.422;2023-02-22T00:37:19;5.00;87.90
5459;DHT22;2752;49.992;8.422;2023-02-22T00:39:46;5.00;87.70
5459;DHT22;2752;49.992;8.422;2023-02-22T00:42:14;5.00;86.80
5459;DHT22;2752;49.992;8.422;2023-02-22T00:44:40;4.80;85.70
5459;DHT22;2752;49.992;8.422;2023-02-22T00:47:08;4.80;86.30
5459;DHT22;2752;49.992;8.422;2023-02-22T00:49:36;4.60;86.90
5459;DHT22;2752;49.992;8.422;2023-02-22T00:52:04;4.60;87.80
5459;DHT22;2752;49.992;8.422;2023-02-22T00:54:31;4.60;89.10
5459;DHT22;2752;49.992;8.422;2023-02-22T00:56:57;4.50;91.00
5459;DHT22;2752;49.992;8.422;2023-02-22T00:59:24;4.60;92.30
5459;DHT22;2752;49.992;8.422;2023-02-22T01:01:51;4.60;93.10
5459;DHT22;2752;49.992;8.422;2023-02-22T01:04:18;4.70;93.20
5459;DHT22;2752;49.992;8.422;2023-02-22T01:06:46;4.60;93.20
5459;DHT22;2752;49.992;8.422;2023-02-22T01:09:12;4.60;93.90
5459;DHT22;2752;49.992;8.422;2023-02-22T01:11:39;4.70;94.50
5459;DHT22;2752;49.992;8.422;2023-02-22T01:14:06;4.70;93.40
5459;DHT22;2752;49.992;8.422;2023-02-22T01:16:34;4.60;92.10
5459;DHT22;2752;49.992;8.422;2023-02-22T01:19:01;4.50;92.40
5459;DHT22;2752;49.992;8.422;2023-02-22T01:21:27;4.50;93.00
5459;DHT22;2752;49.992;8.422;2023-02-22T01:23:55;4.50;93.70
5459;DHT22;2752;49.992;8.422;2023-02-22T01:26:22;4.50;94.30
5459;DHT22;2752;49.992;8.422;2023-02-22T01:28:48;4.50;94.50
5459;DHT22;2752;49.992;8.422;2023-02-22T01:31:15;4.50;95.20
5459;DHT22;2752;49.992;8.422;2023-02-22T01:33:42;4.50;95.80
5459;DHT22;2752;49.992;8.422;2023-02-22T01:36:09;4.50;95.60
5459;DHT22;2752;49.992;8.422;2023-02-22T01:38:36;4.50;95.30
5459;DHT22;2752;49.992;8.422;2023-02-22T01:41:04;4.60;94.20
5459;DHT22;2752;49.992;8.422;2023-02-22T01:43:31;4.50;93.20
5459;DHT22;2752;49.992;8.422;2023-02-22T01:46:00;4.40;92.60
5459;DHT22;2752;49.992;8.422;2023-02-22T01:48:38;4.30;92.80
5459;DHT22;2752;49.992;8.422;2023-02-22T01:51:08;4.30;93.40
5459;DHT22;2752;49.992;8.422;2023-02-22T01:53:39;4.20;93.30
5459;DHT22;2752;49.992;8.422;2023-02-22T01:56:08;4.20;93.40
5459;DHT22;2752;49.992;8.422;2023-02-22T01:58:38;4.10;94.10
5459;DHT22;2752;49.992;8.422;2023-02-22T02:01:06;4.10;95.10
5459;DHT22;2752;49.992;8.422;2023-02-22T02:03:35;4.10;96.00
5459;DHT22;2752;49.992;8.422;2023-02-22T02:06:07;4.20;96.70
5459;DHT22;2752;49.992;8.422;2023-02-22T02:08:41;4.20;96.90
5459;DHT22;2752;49.992;8.422;2023-02-22T02:11:17;4.20;97.30
5459;DHT22;2752;49.992;8.422;2023-02-22T02:13:45;4.20;98.00
5459;DHT22;2752;49.992;8.422;2023-02-22T02:16:11;4.20;97.90
5459;DHT22;2752;49.992;8.422;2023-02-22T02:18:39;4.20;98.40
5459;DHT22;2752;49.992;8.422;2023-02-22T02:27:25;4.20;99.40
5459;DHT22;2752;49.992;8.422;2023-02-22T02:30:10;4.30;99.90
5459;DHT22;2752;49.992;8.422;2023-02-22T02:32:50;4.40;99.90
5459;DHT22;2752;49.992;8.422;2023-02-22T02:35:24;4.40;99.90
5459;DHT22;2752;49.992;8.422;2023-02-22T02:37:59;4.50;99.90
5459;DHT22;2752;49.992;8.422;2023-02-22T02:40:32;4.50;99.90
5459;DHT22;2752;49.992;8.422;2023-02-22T02:43:06;4.50;99.90
5459;DHT22;2752;49.992;8.422;2023-02-22T02:45:41;4.60;99.90
5459;DHT22;2752;49.992;8.422;2023-02-22T02:48:11;4.70;99.90
5459;DHT22;2752;49.992;8.422;2023-02-22T02:50:42;4.70;99.90
5459;DHT22;2752;49.992;8.422;2023-02-22T02:53:11;4.70;99.90
5459;DHT22;2752;49.992;8.422;2023-02-22T02:55:39;4.60;99.90
5459;DHT22;2752;49.992;8.422;2023-02-22T02:58:06;4.60;99.90
5459;DHT22;2752;49.992;8.422;2023-02-22T03:00:37;4.60;99.90
5459;DHT22;2752;49.992;8.422;2023-02-22T03:03:18;4.70;99.90
5459;DHT22;2752;49.992;8.422;2023-02-22T03:06:05;4.90;99.90
5459;DHT22;2752;49.992;8.422;2023-02-22T03:08:42;4.80;99.90
5459;DHT22;2752;49.992;8.422;2023-02-22T03:11:12;4.80;99.90
5459;DHT22;2752;49.992;8.422;2023-02-22T03:13:48;4.70;99.90
5459;DHT22;2752;49.992;8.422;2023-02-22T03:16:20;4.60;99.90
5459;DHT22;2752;49.992;8.422;2023-02-22T03:18:55;4.60;99.90
5459;DHT22;2752;49.992;8.422;2023-02-22T03:21:30;4.60;99.90
5459;DHT22;2752;49.992;8.422;2023-02-22T03:24:02;4.50;99.90
5459;DHT22;2752;49.992;8.422;2023-02-22T03:26:34;4.50;99.50
5459;DHT22;2752;49.992;8.422;2023-02-22T03:29:02;4.50;99.70
5459;DHT22;2752;49.992;8.422;2023-02-22T03:31:33;4.40;99.90
5459;DHT22;2752;49.992;8.422;2023-02-22T03:34:07;4.50;99.90
5459;DHT22;2752;49.992;8.422;2023-02-22T03:36:38;4.50;99.90
5459;DHT22;2752;49.992;8.422;2023-02-22T03:39:09;4.40;99.80
5459;DHT22;2752;49.992;8.422;2023-02-22T03:41:43;4.30;99.70
5459;DHT22;2752;49.992;8.422;2023-02-22T03:44:15;4.30;99.90
5459;DHT22;2752;49.992;8.422;2023-02-22T03:46:44;4.30;99.90
5459;DHT22;2752;49.992;8.422;2023-02-22T03:49:19;4.20;99.90
5459;DHT22;2752;49.992;8.422;2023-02-22T03:51:49;4.20;99.90
5459;DHT22;2752;49.992;8.422;2023-02-22T03:54:16;4.20;99.90
5459;DHT22;2752;49.992;8.422;2023-02-22T03:56:48;4.20;99.90
5459;DHT22;2752;49.992;8.422;2023-02-22T03:59:15;4.30;99.90
5459;DHT22;2752;49.992;8.422;2023-02-22T04:01:42;4.30;99.90
5459;DHT22;2752;49.992;8.422;2023-02-22T04:04:09;4.30;99.90
5459;DHT22;2752;49.992;8.422;2023-02-22T04:06:37;4.40;99.90
5459;DHT22;2752;49.992;8.422;2023-02-22T04:09:03;4.30;99.90
5459;DHT22;2752;49.992;8.422;2023-02-22T04:11:32;4.20;99.90
5459;DHT22;2752;49.992;8.422;2023-02-22T04:13:59;4.20;99.90
5459;DHT22;2752;49.992;8.422;2023-02-22T04:16:26;4.20;99.90
5459;DHT22;2752;49.992;8.422;2023-02-22T04:18:52;4.10;99.90
5459;DHT22;2752;49.992;8.422;2023-02-22T04:21:19;4.00;99.50
5459;DHT22;2752;49.992;8.422;2023-02-22T04:23:47;4.00;99.90
5459;DHT22;2752;49.992;8.422;2023-02-22T04:26:14;4.00;99.90
5459;DHT22;2752;49.992;8.422;2023-02-22T04:28:40;4.10;99.90
5459;DHT22;2752;49.992;8.422;2023-02-22T04:31:07;4.20;99.90
5459;DHT22;2752;49.992;8.422;2023-02-22T04:33:34;4.10;99.90
5459;DHT22;2752;49.992;8.422;2023-02-22T04:36:01;4.10;99.90
5459;DHT22;2752;49.992;8.422;2023-02-22T04:38:27;4.10;99.90
5459;DHT22;2752;49.992;8.422;2023-02-22T04:40:55;4.10;99.90
5459;DHT22;2752;49.992;8.422;2023-02-22T04:43:22;4.10;99.90
5459;DHT22;2752;49.992;8.422;2023-02-22T04:45:49;4.10;99.90
5459;DHT22;2752;49.992;8.422;2023-02-22T04:48:16;4.10;99.90
5459;DHT22;2752;49.992;8.422;2023-02-22T04:50:43;4.10;99.90
5459;DHT22;2752;49.992;8.422;2023-02-22T04:53:11;4.10;99.90
5459;DHT22;2752;49.992;8.422;2023-02-22T04:55:38;4.00;99.90
5459;DHT22;2752;49.992;8.422;2023-02-22T04:58:06;3.90;99.90
5459;DHT22;2752;49.992;8.422;2023-02-22T05:00:32;3.90;99.90
5459;DHT22;2752;49.992;8.422;2023-02-22T05:02:59;3.80;99.90
5459;DHT22;2752;49.992;8.422;2023-02-22T05:05:26;3.80;99.90
5459;DHT22;2752;49.992;8.422;2023-02-22T05:07:52;3.70;99.90
5459;DHT22;2752;49.992;8.422;2023-02-22T05:10:19;3.70;99.90
5459;DHT22;2752;49.992;8.422;2023-02-22T05:12:46;3.60;99.90
5459;DHT22;2752;49.992;8.422;2023-02-22T05:15:17;3.70;99.90
5459;DHT22;2752;49.992;8.422;2023-02-22T05:17:44;3.60;99.90
5459;DHT22;2752;49.992;8.422;2023-02-22T05:20:16;3.60;99.90
5459;DHT22;2752;49.992;8.422;2023-02-22T05:22:43;3.60;99.90
5459;DHT22;2752;49.992;8.422;2023-02-22T05:25:10;3.60;99.90
5459;DHT22;2752;49.992;8.422;2023-02-22T05:27:36;3.60;99.90
5459;DHT22;2752;49.992;8.422;2023-02-22T05:30:04;3.50;99.90
5459;DHT22;2752;49.992;8.422;2023-02-22T05:32:34;3.50;99.90
5459;DHT22;2752;49.992;8.422;2023-02-22T05:35:01;3.60;99.90
5459;DHT22;2752;49.992;8.422;2023-02-22T05:37:28;3.60;99.90
5459;DHT22;2752;49.992;8.422;2023-02-22T05:39:54;3.70;99.90
5459;DHT22;2752;49.992;8.422;2023-02-22T05:42:21;3.80;99.90
5459;DHT22;2752;49.992;8.422;2023-02-22T05:44:48;3.80;99.90
5459;DHT22;2752;49.992;8.422;2023-02-22T05:47:14;3.70;99.90
5459;DHT22;2752;49.992;8.422;2023-02-22T05:49:42;3.70;99.90
5459;DHT22;2752;49.992;8.422;2023-02-22T05:52:09;3.70;99.90
5459;DHT22;2752;49.992;8.422;2023-02-22T05:54:35;3.90;99.90
5459;DHT22;2752;49.992;8.422;2023-02-22T05:57:02;3.80;99.90
5459;DHT22;2752;49.992;8.422;2023-02-22T05:59:29;3.80;99.90
5459;DHT22;2752;49.992;8.422;2023-02-22T06:01:55;3.90;99.90
5459;DHT22;2752;49.992;8.422;2023-02-22T06:04:22;3.90;99.90
5459;DHT22;2752;49.992;8.422;2023-02-22T06:06:50;3.90;99.90
5459;DHT22;2752;49.992;8.422;2023-02-22T06:09:17;3.80;99.90
5459;DHT22;2752;49.992;8.422;2023-02-22T06:11:43;3.70;99.90
5459;DHT22;2752;49.992;8.422;2023-02-22T06:14:10;3.70;99.90
5459;DHT22;2752;49.992;8.422;2023-02-22T06:16:37;3.70;99.90
5459;DHT22;2752;49.992;8.422;2023-02-22T06:19:03;3.70;99.90
5459;DHT22;2752;49.992;8.422;2023-02-22T06:21:30;3.70;99.90
5459;DHT22;2752;49.992;8.422;2023-02-22T06:23:58;3.60;99.90
5459;DHT22;2752;49.992;8.422;2023-02-22T06:26:24;3.60;99.90
5459;DHT22;2752;49.992;8.422;2023-02-22T06:28:51;3.60;99.90
5459;DHT22;2752;49.992;8.422;2023-02-22T06:31:18;3.60;99.90
5459;DHT22;2752;49.992;8.422;2023-02-22T06:33:44;3.50;99.90
5459;DHT22;2752;49.992;8.422;2023-02-22T06:36:11;3.50;99.90
5459;DHT22;2752;49.992;8.422;2023-02-22T06:38:38;3.50;99.90
5459;DHT22;2752;49.992;8.422;2023-02-22T06:41:07;3.50;99.90
5459;DHT22;2752;49.992;8.422;2023-02-22T06:43:34;3.40;99.90
5459;DHT22;2752;49.992;8.422;2023-02-22T06:46:00;3.40;99.90
5459;DHT22;2752;49.992;8.422;2023-02-22T06:48:27;3.40;99.90
5459;DHT22;2752;49.992;8.422;2023-02-22T06:50:54;3.40;99.90
5459;DHT22;2752;49.992;8.422;2023-02-22T06:53:20;3.40;99.90
5459;DHT22;2752;49.992;8.422;2023-02-22T06:55:47;3.40;99.90
5459;DHT22;2752;49.992;8.422;2023-02-22T06:58:15;3.50;99.90
5459;DHT22;2752;49.992;8.422;2023-02-22T07:00:42;3.70;99.90
5459;DHT22;2752;49.992;8.422;2023-02-22T07:03:09;3.60;99.90
5459;DHT22;2752;49.992;8.422;2023-02-22T07:05:36;3.90;99.90
5459;DHT22;2752;49.992;8.422;2023-02-22T07:08:05;3.90;99.90
5459;DHT22;2752;49.992;8.422;2023-02-22T07:10:34;4.00;99.90
5459;DHT22;2752;49.992;8.422;2023-02-22T07:13:01;4.00;99.90
5459;DHT22;2752;49.992;8.422;2023-02-22T07:15:30;4.00;99.90
5459;DHT22;2752;49.992;8.422;2023-02-22T07:17:58;4.10;99.90
5459;DHT22;2752;49.992;8.422;2023-02-22T07:20:26;4.20;99.90
5459;DHT22;2752;49.992;8.422;2023-02-22T07:22:53;4.20;99.90
5459;DHT22;2752;49.992;8.422;2023-02-22T07:25:21;4.30;99.90
5459;DHT22;2752;49.992;8.422;2023-02-22T07:27:48;4.30;99.90
5459;DHT22;2752;49.992;8.422;2023-02-22T07:30:18;4.40;99.90
5459;DHT22;2752;49.992;8.422;2023-02-22T07:32:46;4.40;99.90
5459;DHT22;2752;49.992;8.422;2023-02-22T07:35:14;4.50;99.90
5459;DHT22;2752;49.992;8.422;2023-02-22T07:37:41;4.50;99.90
5459;DHT22;2752;49.992;8.422;2023-02-22T07:40:09;4.60;99.90
5459;DHT22;2752;49.992;8.422;2023-02-22T07:42:52;4.90;99.90
5459;DHT22;2752;49.992;8.422;2023-02-22T07:45:20;5.10;99.90
5459;DHT22;2752;49.992;8.422;2023-02-22T07:47:48;5.10;97.30
5459;DHT22;2752;49.992;8.422;2023-02-22T07:50:16;5.20;95.00
5459;DHT22;2752;49.992;8.422;2023-02-22T07:52:44;5.20;93.90
5459;DHT22;2752;49.992;8.422;2023-02-22T07:55:13;5.30;90.70
5459;DHT22;2752;49.992;8.422;2023-02-22T07:57:41;5.30;90.40
5459;DHT22;2752;49.992;8.422;2023-02-22T08:00:09;5.40;89.60
5459;DHT22;2752;49.992;8.422;2023-02-22T08:02:36;5.40;87.70
5459;DHT22;2752;49.992;8.422;2023-02-22T08:05:06;5.40;86.40
5459;DHT22;2752;49.992;8.422;2023-02-22T08:07:35;5.30;88.10
5459;DHT22;2752;49.992;8.422;2023-02-22T08:10:02;5.40;87.90
5459;DHT22;2752;49.992;8.422;2023-02-22T08:12:31;5.40;85.10
5459;DHT22;2752;49.992;8.422;2023-02-22T08:14:57;5.40;85.80
5459;DHT22;2752;49.992;8.422;2023-02-22T08:17:24;5.30;85.90
5459;DHT22;2752;49.992;8.422;2023-02-22T08:19:51;5.40;86.60
5459;DHT22;2752;49.992;8.422;2023-02-22T08:22:19;5.40;88.20
5459;DHT22;2752;49.992;8.422;2023-02-22T08:24:45;5.30;87.80
5459;DHT22;2752;49.992;8.422;2023-02-22T08:27:12;5.30;87.30
5459;DHT22;2752;49.992;8.422;2023-02-22T08:29:38;5.30;88.30
5459;DHT22;2752;49.992;8.422;2023-02-22T08:32:05;5.40;89.60
5459;DHT22;2752;49.992;8.422;2023-02-22T08:34:32;5.40;89.60
5459;DHT22;2752;49.992;8.422;2023-02-22T08:36:58;5.50;88.70
5459;DHT22;2752;49.992;8.422;2023-02-22T08:39:26;5.60;89.10
5459;DHT22;2752;49.992;8.422;2023-02-22T08:41:53;5.60;89.00
5459;DHT22;2752;49.992;8.422;2023-02-22T08:44:20;5.70;88.60
5459;DHT22;2752;49.992;8.422;2023-02-22T08:46:48;5.70;88.40
5459;DHT22;2752;49.992;8.422;2023-02-22T08:49:16;6.00;87.40
5459;DHT22;2752;49.992;8.422;2023-02-22T08:51:43;6.10;84.00
5459;DHT22;2752;49.992;8.422;2023-02-22T08:54:09;6.30;82.10
5459;DHT22;2752;49.992;8.422;2023-02-22T08:56:37;6.40;80.30
5459;DHT22;2752;49.992;8.422;2023-02-22T08:59:04;6.60;75.30
5459;DHT22;2752;49.992;8.422;2023-02-22T09:01:31;6.60;73.30
5459;DHT22;2752;49.992;8.422;2023-02-22T09:03:59;6.60;74.20
5459;DHT22;2752;49.992;8.422;2023-02-22T09:06:26;6.70;75.60
5459;DHT22;2752;49.992;8.422;2023-02-22T09:08:53;6.70;76.30
5459;DHT22;2752;49.992;8.422;2023-02-22T09:11:20;6.80;75.00
5459;DHT22;2752;49.992;8.422;2023-02-22T09:13:48;6.90;74.50
5459;DHT22;2752;49.992;8.422;2023-02-22T09:16:14;7.00;75.10
5459;DHT22;2752;49.992;8.422;2023-02-22T09:18:41;7.10;74.90
5459;DHT22;2752;49.992;8.422;2023-02-22T09:21:08;7.40;73.90
5459;DHT22;2752;49.992;8.422;2023-02-22T09:23:36;7.40;70.20
5459;DHT22;2752;49.992;8.422;2023-02-22T09:26:03;7.60;66.80
5459;DHT22;2752;49.992;8.422;2023-02-22T09:28:29;7.70;65.30
5459;DHT22;2752;49.992;8.422;2023-02-22T09:30:57;7.80;65.30
5459;DHT22;2752;49.992;8.422;2023-02-22T09:33:24;7.90;64.20
5459;DHT22;2752;49.992;8.422;2023-02-22T09:35:51;8.00;64.20
5459;DHT22;2752;49.992;8.422;2023-02-22T09:38:19;8.10;62.20
5459;DHT22;2752;49.992;8.422;2023-02-22T09:40:49;8.30;60.60
5459;DHT22;2752;49.992;8.422;2023-02-22T09:43:28;8.10;56.60
5459;DHT22;2752;49.992;8.422;2023-02-22T09:46:15;8.10;60.40
5459;DHT22;2752;49.992;8.422;2023-02-22T09:48:54;8.00;60.60
5459;DHT22;2752;49.992;8.422;2023-02-22T09:51:24;7.90;63.00
5459;DHT22;2752;49.992;8.422;2023-02-22T09:53:56;8.00;65.00
5459;DHT22;2752;49.992;8.422;2023-02-22T09:56:23;8.00;63.70
5459;DHT22;2752;49.992;8.422;2023-02-22T09:58:54;8.30;65.00
5459;DHT22;2752;49.992;8.422;2023-02-22T10:01:26;8.30;61.00
5459;DHT22;2752;49.992;8.422;2023-02-22T10:03:59;8.30;60.10
5459;DHT22;2752;49.992;8.422;2023-02-22T10:06:27;8.30;58.70
5459;DHT22;2752;49.992;8.422;2023-02-22T10:08:59;8.30;57.50
5459;DHT22;2752;49.992;8.422;2023-02-22T10:11:42;8.40;58.60
5459;DHT22;2752;49.992;8.422;2023-02-22T10:14:25;8.50;56.70
5459;DHT22;2752;49.992;8.422;2023-02-22T10:17:04;8.50;56.70
5459;DHT22;2752;49.992;8.422;2023-02-22T10:19:40;8.80;57.50
5459;DHT22;2752;49.992;8.422;2023-02-22T10:22:34;8.90;53.70
5459;DHT22;2752;49.992;8.422;2023-02-22T10:25:07;9.20;47.90
5459;DHT22;2752;49.992;8.422;2023-02-22T10:27:39;9.40;44.00
5459;DHT22;2752;49.992;8.422;2023-02-22T10:30:15;9.70;36.90
5459;DHT22;2752;49.992;8.422;2023-02-22T10:32:51;9.90;34.10
5459;DHT22;2752;49.992;8.422;2023-02-22T10:35:22;9.80;33.00
5459;DHT22;2752;49.992;8.422;2023-02-22T10:37:52;9.80;31.80
5459;DHT22;2752;49.992;8.422;2023-02-22T10:40:22;9.90;30.40
5459;DHT22;2752;49.992;8.422;2023-02-22T10:42:57;10.20;30.00
5459;DHT22;2752;49.992;8.422;2023-02-22T10:45:27;10.40;28.70
5459;DHT22;2752;49.992;8.422;2023-02-22T10:47:57;10.20;28.50
5459;DHT22;2752;49.992;8.422;2023-02-22T10:50:25;10.20;28.80
5459;DHT22;2752;49.992;8.422;2023-02-22T10:52:53;10.20;30.00
5459;DHT22;2752;49.992;8.422;2023-02-22T10:55:20;9.90;29.90
5459;DHT22;2752;49.992;8.422;2023-02-22T10:57:50;9.60;35.60
5459;DHT22;2752;49.992;8.422;2023-02-22T11:00:21;9.50;37.80
5459;DHT22;2752;49.992;8.422;2023-02-22T11:02:52;9.50;40.60
5459;DHT22;2752;49.992;8.422;2023-02-22T11:05:33;9.50;40.10
5459;DHT22;2752;49.992;8.422;2023-02-22T11:08:29;9.60;40.70
5459;DHT22;2752;49.992;8.422;2023-02-22T11:11:00;9.80;37.80
5459;DHT22;2752;49.992;8.422;2023-02-22T11:13:29;9.90;36.10
5459;DHT22;2752;49.992;8.422;2023-02-22T11:15:59;10.10;32.90
5459;DHT22;2752;49.992;8.422;2023-02-22T11:18:30;10.10;32.90
5459;DHT22;2752;49.992;8.422;2023-02-22T11:21:00;10.20;31.00
5459;DHT22;2752;49.992;8.422;2023-02-22T11:23:28;10.20;30.00
5459;DHT22;2752;49.992;8.422;2023-02-22T11:26:02;10.40;29.40
5459;DHT22;2752;49.992;8.422;2023-02-22T11:28:30;10.70;25.50
5459;DHT22;2752;49.992;8.422;2023-02-22T11:30:58;10.70;19.80
5459;DHT22;2752;49.992;8.422;2023-02-22T11:33:34;10.80;18.70
5459;DHT22;2752;49.992;8.422;2023-02-22T11:36:05;10.70;14.80
5459;DHT22;2752;49.992;8.422;2023-02-22T11:38:34;10.80;12.40
5459;DHT22;2752;49.992;8.422;2023-02-22T11:41:10;11.00;7.00
5459;DHT22;2752;49.992;8.422;2023-02-22T11:43:38;11.10;3.00
5459;DHT22;2752;49.992;8.422;2023-02-22T11:46:08;11.20;1.00
5459;DHT22;2752;49.992;8.422;2023-02-22T11:48:40;11.10;1.00
5459;DHT22;2752;49.992;8.422;2023-02-22T11:51:16;11.10;1.00
5459;DHT22;2752;49.992;8.422;2023-02-22T11:53:59;11.00;1.00
5459;DHT22;2752;49.992;8.422;2023-02-22T11:56:30;11.10;1.00
5459;DHT22;2752;49.992;8.422;2023-02-22T11:59:03;11.20;1.00
5459;DHT22;2752;49.992;8.422;2023-02-22T12:01:38;11.50;1.00
5459;DHT22;2752;49.992;8.422;2023-02-22T12:04:35;11.90;1.00
5459;DHT22;2752;49.992;8.422;2023-02-22T12:07:23;12.10;1.00
5459;DHT22;2752;49.992;8.422;2023-02-22T12:10:00;12.40;1.00
5459;DHT22;2752;49.992;8.422;2023-02-22T12:12:36;12.50;1.00
5459;DHT22;2752;49.992;8.422;2023-02-22T12:15:10;12.70;1.00
5459;DHT22;2752;49.992;8.422;2023-02-22T12:17:47;12.70;1.00
5459;DHT22;2752;49.992;8.422;2023-02-22T12:20:19;12.90;1.00
5459;DHT22;2752;49.992;8.422;2023-02-22T12:22:59;13.00;1.00
5459;DHT22;2752;49.992;8.422;2023-02-22T12:25:31;13.00;1.00
5459;DHT22;2752;49.992;8.422;2023-02-22T12:28:04;13.00;1.00
5459;DHT22;2752;49.992;8.422;2023-02-22T12:30:39;12.90;1.00
5459;DHT22;2752;49.992;8.422;2023-02-22T12:33:11;12.50;1.00
5459;DHT22;2752;49.992;8.422;2023-02-22T12:35:41;12.90;1.00
5459;DHT22;2752;49.992;8.422;2023-02-22T12:38:17;13.10;1.00
5459;DHT22;2752;49.992;8.422;2023-02-22T12:40:51;13.10;1.00
5459;DHT22;2752;49.992;8.422;2023-02-22T12:43:26;13.30;1.00
5459;DHT22;2752;49.992;8.422;2023-02-22T12:46:01;13.50;1.00
5459;DHT22;2752;49.992;8.422;2023-02-22T12:48:36;13.40;1.00
5459;DHT22;2752;49.992;8.422;2023-02-22T12:51:16;13.30;1.00
5459;DHT22;2752;49.992;8.422;2023-02-22T12:53:53;13.20;1.00
5459;DHT22;2752;49.992;8.422;2023-02-22T12:56:27;13.20;1.00
5459;DHT22;2752;49.992;8.422;2023-02-22T12:58:59;13.10;1.00
5459;DHT22;2752;49.992;8.422;2023-02-22T13:01:35;13.20;1.00
5459;DHT22;2752;49.992;8.422;2023-02-22T13:04:01;13.30;1.00
5459;DHT22;2752;49.992;8.422;2023-02-22T13:06:44;13.40;1.00
5459;DHT22;2752;49.992;8.422;2023-02-22T13:09:29;13.50;1.00
5459;DHT22;2752;49.992;8.422;2023-02-22T13:12:03;13.60;1.00
5459;DHT22;2752;49.992;8.422;2023-02-22T13:14:40;13.80;1.00
5459;DHT22;2752;49.992;8.422;2023-02-22T13:17:13;13.70;1.00
5459;DHT22;2752;49.992;8.422;2023-02-22T13:19:48;13.80;1.00
5459;DHT22;2752;49.992;8.422;2023-02-22T13:22:20;14.00;1.00
5459;DHT22;2752;49.992;8.422;2023-02-22T13:25:00;13.90;1.00
5459;DHT22;2752;49.992;8.422;2023-02-22T13:27:35;14.00;1.00
5459;DHT22;2752;49.992;8.422;2023-02-22T13:30:05;14.10;1.00
5459;DHT22;2752;49.992;8.422;2023-02-22T13:32:48;14.10;1.00
5459;DHT22;2752;49.992;8.422;2023-02-22T13:47:34;13.80;1.00
5459;DHT22;2752;49.992;8.422;2023-02-22T13:50:27;13.80;1.00
5459;DHT22;2752;49.992;8.422;2023-02-22T13:52:58;13.80;1.00
5459;DHT22;2752;49.992;8.422;2023-02-22T13:55:28;13.90;1.00
5459;DHT22;2752;49.992;8.422;2023-02-22T13:58:01;13.80;1.00
5459;DHT22;2752;49.992;8.422;2023-02-22T14:00:46;13.90;1.00
5459;DHT22;2752;49.992;8.422;2023-02-22T14:03:32;13.80;1.00
5459;DHT22;2752;49.992;8.422;2023-02-22T14:06:03;13.80;1.00
5459;DHT22;2752;49.992;8.422;2023-02-22T14:08:45;13.70;1.00
5459;DHT22;2752;49.992;8.422;2023-02-22T14:14:22;13.80;1.00
5459;DHT22;2752;49.992;8.422;2023-02-22T14:20:20;13.70;1.00
5459;DHT22;2752;49.992;8.422;2023-02-22T14:25:34;13.60;1.00
5459;DHT22;2752;49.992;8.422;2023-02-22T14:28:02;13.40;1.00
5459;DHT22;2752;49.992;8.422;2023-02-22T14:30:31;13.40;1.00
5459;DHT22;2752;49.992;8.422;2023-02-22T14:32:59;13.40;1.00
5459;DHT22;2752;49.992;8.422;2023-02-22T14:35:32;13.60;1.00
5459;DHT22;2752;49.992;8.422;2023-02-22T14:38:02;13.50;1.00
5459;DHT22;2752;49.992;8.422;2023-02-22T14:40:31;13.50;1.00
5459;DHT22;2752;49.992;8.422;2023-02-22T14:43:01;13.70;1.00
5459;DHT22;2752;49.992;8.422;2023-02-22T14:45:32;13.70;1.00
5459;DHT22;2752;49.992;8.422;2023-02-22T14:48:02;13.60;1.00
5459;DHT22;2752;49.992;8.422;2023-02-22T14:50:41;13.60;1.00
5459;DHT22;2752;49.992;8.422;2023-02-22T14:53:20;13.40;1.00
5459;DHT22;2752;49.992;8.422;2023-02-22T14:55:52;13.50;1.00
5459;DHT22;2752;49.992;8.422;2023-02-22T14:58:24;13.50;1.00
5459;DHT22;2752;49.992;8.422;2023-02-22T15:00:56;13.50;1.00
5459;DHT22;2752;49.992;8.422;2023-02-22T15:03:27;13.50;1.00
5459;DHT22;2752;49.992;8.422;2023-02-22T15:06:03;13.40;1.00
5459;DHT22;2752;49.992;8.422;2023-02-22T15:08:30;13.20;1.00
5459;DHT22;2752;49.992;8.422;2023-02-22T15:10:59;13.00;1.00
5459;DHT22;2752;49.992;8.422;2023-02-22T15:13:28;13.20;1.00
5459;DHT22;2752;49.992;8.422;2023-02-22T15:16:00;13.10;1.00
5459;DHT22;2752;49.992;8.422;2023-02-22T15:18:31;13.20;1.00
5459;DHT22;2752;49.992;8.422;2023-02-22T15:21:05;13.20;1.00
5459;DHT22;2752;49.992;8.422;2023-02-22T15:23:39;13.30;1.00
5459;DHT22;2752;49.992;8.422;2023-02-22T15:26:07;13.20;1.00
5459;DHT22;2752;49.992;8.422;2023-02-22T15:28:41;13.30;1.00
5459;DHT22;2752;49.992;8.422;2023-02-22T15:31:25;13.10;1.00
5459;DHT22;2752;49.992;8.422;2023-02-22T15:33:53;13.10;1.00
5459;DHT22;2752;49.992;8.422;2023-02-22T15:36:23;13.20;1.00
5459;DHT22;2752;49.992;8.422;2023-02-22T15:38:52;13.20;1.00
5459;DHT22;2752;49.992;8.422;2023-02-22T15:41:23;13.10;1.00
5459;DHT22;2752;49.992;8.422;2023-02-22T15:43:59;13.10;1.00
5459;DHT22;2752;49.992;8.422;2023-02-22T15:46:28;13.10;1.00
5459;DHT22;2752;49.992;8.422;2023-02-22T15:49:19;13.00;1.00
5459;DHT22;2752;49.992;8.422;2023-02-22T15:52:03;12.80;1.00
5459;DHT22;2752;49.992;8.422;2023-02-22T15:54:40;12.90;1.00
5459;DHT22;2752;49.992;8.422;2023-02-22T15:57:08;12.90;1.00
5459;DHT22;2752;49.992;8.422;2023-02-22T15:59:41;12.80;1.00
5459;DHT22;2752;49.992;8.422;2023-02-22T16:02:20;12.50;1.00
5459;DHT22;2752;49.992;8.422;2023-02-22T16:04:57;12.30;1.00
5459;DHT22;2752;49.992;8.422;2023-02-22T16:07:24;12.20;1.00
5459;DHT22;2752;49.992;8.422;2023-02-22T16:09:51;12.30;1.00
5459;DHT22;2752;49.992;8.422;2023-02-22T16:12:24;12.40;1.00
5459;DHT22;2752;49.992;8.422;2023-02-22T16:14:51;12.10;1.00
5459;DHT22;2752;49.992;8.422;2023-02-22T16:17:34;12.30;1.00
5459;DHT22;2752;49.992;8.422;2023-02-22T16:22:44;12.20;1.00
5459;DHT22;2752;49.992;8.422;2023-02-22T16:25:23;12.00;1.00
5459;DHT22;2752;49.992;8.422;2023-02-22T16:27:53;11.90;1.00
5459;DHT22;2752;49.992;8.422;2023-02-22T16:30:25;11.80;1.00
5459;DHT22;2752;49.992;8.422;2023-02-22T16:32:54;11.70;1.00
5459;DHT22;2752;49.992;8.422;2023-02-22T16:35:23;11.70;1.00
5459;DHT22;2752;49.992;8.422;2023-02-22T16:37:57;11.60;1.00
5459;DHT22;2752;49.992;8.422;2023-02-22T16:40:27;11.50;1.00
5459;DHT22;2752;49.992;8.422;2023-02-22T16:42:57;11.50;1.00
5459;DHT22;2752;49.992;8.422;2023-02-22T16:45:24;11.40;1.00
5459;DHT22;2752;49.992;8.422;2023-02-22T16:47:52;11.30;1.00
5459;DHT22;2752;49.992;8.422;2023-02-22T16:50:19;11.30;1.00
5459;DHT22;2752;49.992;8.422;2023-02-22T16:52:48;11.20;1.00
5459;DHT22;2752;49.992;8.422;2023-02-22T16:55:16;11.10;1.00
5459;DHT22;2752;49.992;8.422;2023-02-22T16:57:44;11.10;1.00
5459;DHT22;2752;49.992;8.422;2023-02-22T17:00:14;11.00;1.00
5459;DHT22;2752;49.992;8.422;2023-02-22T17:02:41;11.10;1.00
5459;DHT22;2752;49.992;8.422;2023-02-22T17:05:14;11.20;1.00
5459;DHT22;2752;49.992;8.422;2023-02-22T17:07:41;11.30;1.00